sensor_id;sensor_type;location;lat;lon;timestamp;pressure;altitude;pressure_sealevel;temperature
68745;BMP180;66104;45.456;11.064;2023-05-17T00:01:02;99725.20;;;15.90
68745;BMP180;66104;45.456;11.064;2023-05-17T00:03:42;99727.20;;;15.90
68745;BMP180;66104;45.456;11.064;2023-05-17T00:06:23;99723.60;;;15.90
68745;BMP180;66104;45.456;11.064;2023-05-17T00:09:03;99727.60;;;15.90
68745;BMP180;66104;45.456;11.064;2023-05-17T00:11:42;99722.40;;;15.96
68745;BMP180;66104;45.456;11.064;2023-05-17T00:14:22;99720.40;;;15.90
68745;BMP180;66104;45.456;11.064;2023-05-17T00:17:01;99729.60;;;15.92
68745;BMP180;66104;45.456;11.064;2023-05-17T00:19:40;99732.80;;;15.92
68745;BMP180;66104;45.456;11.064;2023-05-17T00:22:17;99729.00;;;15.90
68745;BMP180;66104;45.456;11.064;2023-05-17T00:24:56;99727.00;;;15.90
68745;BMP180;66104;45.456;11.064;2023-05-17T00:27:35;99724.40;;;15.90
68745;BMP180;66104;45.456;11.064;2023-05-17T00:30:16;99725.20;;;15.90
68745;BMP180;66104;45.456;11.064;2023-05-17T00:32:54;99717.80;;;15.90
68745;BMP180;66104;45.456;11.064;2023-05-17T00:35:32;99713.00;;;15.90
68745;BMP180;66104;45.456;11.064;2023-05-17T00:38:09;99713.00;;;15.90
68745;BMP180;66104;45.456;11.064;2023-05-17T00:40:47;99713.40;;;15.90
68745;BMP180;66104;45.456;11.064;2023-05-17T00:43:27;99714.60;;;15.90
68745;BMP180;66104;45.456;11.064;2023-05-17T00:46:05;99714.60;;;15.80
68745;BMP180;66104;45.456;11.064;2023-05-17T00:48:43;99716.20;;;15.80
68745;BMP180;66104;45.456;11.064;2023-05-17T00:51:24;99713.80;;;15.80
68745;BMP180;66104;45.456;11.064;2023-05-17T00:54:01;99709.80;;;15.80
68745;BMP180;66104;45.456;11.064;2023-05-17T00:56:41;99708.00;;;15.70
68745;BMP180;66104;45.456;11.064;2023-05-17T00:59:22;99707.00;;;15.70
68745;BMP180;66104;45.456;11.064;2023-05-17T01:02:03;99708.40;;;15.70
68745;BMP180;66104;45.456;11.064;2023-05-17T01:04:41;99709.40;;;15.60
68745;BMP180;66104;45.456;11.064;2023-05-17T01:07:20;99714.40;;;15.60
68745;BMP180;66104;45.456;11.064;2023-05-17T01:10:00;99715.00;;;15.50
68745;BMP180;66104;45.456;11.064;2023-05-17T01:12:53;99710.60;;;15.50
68745;BMP180;66104;45.456;11.064;2023-05-17T01:15:39;99712.60;;;15.40
68745;BMP180;66104;45.456;11.064;2023-05-17T01:18:31;99706.20;;;15.40
68745;BMP180;66104;45.456;11.064;2023-05-17T01:21:28;99706.00;;;15.40
68745;BMP180;66104;45.456;11.064;2023-05-17T01:24:24;99708.60;;;15.40
68745;BMP180;66104;45.456;11.064;2023-05-17T01:27:05;99705.80;;;15.34
68745;BMP180;66104;45.456;11.064;2023-05-17T01:29:45;99706.60;;;15.30
68745;BMP180;66104;45.456;11.064;2023-05-17T01:32:26;99711.60;;;15.30
68745;BMP180;66104;45.456;11.064;2023-05-17T01:35:09;99716.20;;;15.30
68745;BMP180;66104;45.456;11.064;2023-05-17T01:37:47;99715.80;;;15.30
68745;BMP180;66104;45.456;11.064;2023-05-17T01:40:26;99715.00;;;15.30
68745;BMP180;66104;45.456;11.064;2023-05-17T01:43:12;99722.60;;;15.30
68745;BMP180;66104;45.456;11.064;2023-05-17T01:46:03;99726.40;;;15.20
68745;BMP180;66104;45.456;11.064;2023-05-17T01:48:48;99725.20;;;15.20
68745;BMP180;66104;45.456;11.064;2023-05-17T01:51:30;99731.60;;;15.28
68745;BMP180;66104;45.456;11.064;2023-05-17T01:54:13;99734.00;;;15.30
68745;BMP180;66104;45.456;11.064;2023-05-17T01:56:56;99736.80;;;15.30
68745;BMP180;66104;45.456;11.064;2023-05-17T01:59:36;99737.60;;;15.28
68745;BMP180;66104;45.456;11.064;2023-05-17T02:02:14;99743.40;;;15.20
68745;BMP180;66104;45.456;11.064;2023-05-17T02:04:52;99743.40;;;15.20
68745;BMP180;66104;45.456;11.064;2023-05-17T02:07:31;99741.80;;;15.10
68745;BMP180;66104;45.456;11.064;2023-05-17T02:10:14;99747.60;;;15.10
68745;BMP180;66104;45.456;11.064;2023-05-17T02:12:52;99748.20;;;15.00
68745;BMP180;66104;45.456;11.064;2023-05-17T02:15:30;99750.80;;;15.00
68745;BMP180;66104;45.456;11.064;2023-05-17T02:18:08;99755.40;;;15.00
68745;BMP180;66104;45.456;11.064;2023-05-17T02:20:47;99760.80;;;15.10
68745;BMP180;66104;45.456;11.064;2023-05-17T02:23:26;99759.20;;;15.10
68745;BMP180;66104;45.456;11.064;2023-05-17T02:26:04;99755.20;;;15.10
68745;BMP180;66104;45.456;11.064;2023-05-17T02:28:42;99758.20;;;15.12
68745;BMP180;66104;45.456;11.064;2023-05-17T02:31:20;99756.60;;;15.20
68745;BMP180;66104;45.456;11.064;2023-05-17T02:33:59;99758.40;;;15.20
68745;BMP180;66104;45.456;11.064;2023-05-17T02:36:38;99759.80;;;15.14
68745;BMP180;66104;45.456;11.064;2023-05-17T02:39:19;99762.00;;;15.14
68745;BMP180;66104;45.456;11.064;2023-05-17T02:41:58;99764.60;;;15.18
68745;BMP180;66104;45.456;11.064;2023-05-17T02:44:36;99761.80;;;15.10
68745;BMP180;66104;45.456;11.064;2023-05-17T02:47:15;99770.80;;;15.10
68745;BMP180;66104;45.456;11.064;2023-05-17T02:49:55;99769.00;;;15.10
68745;BMP180;66104;45.456;11.064;2023-05-17T02:52:34;99775.00;;;15.10
68745;BMP180;66104;45.456;11.064;2023-05-17T02:55:15;99772.60;;;15.10
68745;BMP180;66104;45.456;11.064;2023-05-17T02:57:55;99780.60;;;15.00
68745;BMP180;66104;45.456;11.064;2023-05-17T03:00:33;99785.40;;;15.00
68745;BMP180;66104;45.456;11.064;2023-05-17T03:03:12;99790.60;;;15.00
68745;BMP180;66104;45.456;11.064;2023-05-17T03:05:53;99794.20;;;15.00
68745;BMP180;66104;45.456;11.064;2023-05-17T03:08:33;99800.80;;;15.00
68745;BMP180;66104;45.456;11.064;2023-05-17T03:11:12;99800.20;;;15.00
68745;BMP180;66104;45.456;11.064;2023-05-17T03:13:51;99803.60;;;14.96
68745;BMP180;66104;45.456;11.064;2023-05-17T03:16:33;99811.20;;;15.00
68745;BMP180;66104;45.456;11.064;2023-05-17T03:19:17;99814.40;;;15.00
68745;BMP180;66104;45.456;11.064;2023-05-17T03:21:58;99818.60;;;15.00
68745;BMP180;66104;45.456;11.064;2023-05-17T03:24:40;99824.20;;;15.00
68745;BMP180;66104;45.456;11.064;2023-05-17T03:27:19;99828.60;;;15.00
68745;BMP180;66104;45.456;11.064;2023-05-17T03:30:01;99834.40;;;15.00
68745;BMP180;66104;45.456;11.064;2023-05-17T03:32:44;99837.40;;;15.00
68745;BMP180;66104;45.456;11.064;2023-05-17T03:35:26;99843.40;;;15.06
68745;BMP180;66104;45.456;11.064;2023-05-17T03:38:09;99845.60;;;15.00
68745;BMP180;66104;45.456;11.064;2023-05-17T03:40:53;99853.60;;;15.00
68745;BMP180;66104;45.456;11.064;2023-05-17T03:43:34;99853.80;;;15.00
68745;BMP180;66104;45.456;11.064;2023-05-17T03:46:17;99863.40;;;15.00
68745;BMP180;66104;45.456;11.064;2023-05-17T03:48:57;99870.40;;;15.00
68745;BMP180;66104;45.456;11.064;2023-05-17T03:51:39;99871.60;;;14.90
68745;BMP180;66104;45.456;11.064;2023-05-17T03:54:20;99883.20;;;14.90
68745;BMP180;66104;45.456;11.064;2023-05-17T03:57:01;99884.00;;;14.92
68745;BMP180;66104;45.456;11.064;2023-05-17T03:59:40;99893.80;;;14.92
68745;BMP180;66104;45.456;11.064;2023-05-17T04:02:19;99894.60;;;15.00
68745;BMP180;66104;45.456;11.064;2023-05-17T04:04:57;99902.00;;;15.00
68745;BMP180;66104;45.456;11.064;2023-05-17T04:07:36;99907.00;;;14.92
68745;BMP180;66104;45.456;11.064;2023-05-17T04:10:15;99908.80;;;14.96
68745;BMP180;66104;45.456;11.064;2023-05-17T04:12:54;99910.60;;;14.90
68745;BMP180;66104;45.456;11.064;2023-05-17T04:15:32;99914.40;;;14.98
68745;BMP180;66104;45.456;11.064;2023-05-17T04:18:11;99916.60;;;15.00
68745;BMP180;66104;45.456;11.064;2023-05-17T04:20:50;99917.60;;;15.00
68745;BMP180;66104;45.456;11.064;2023-05-17T04:23:30;99925.60;;;15.00
68745;BMP180;66104;45.456;11.064;2023-05-17T04:26:09;99928.80;;;15.00
68745;BMP180;66104;45.456;11.064;2023-05-17T04:28:46;99929.60;;;15.00
68745;BMP180;66104;45.456;11.064;2023-05-17T04:31:24;99931.00;;;14.98
68745;BMP180;66104;45.456;11.064;2023-05-17T04:34:02;99925.60;;;14.94
68745;BMP180;66104;45.456;11.064;2023-05-17T04:36:40;99925.40;;;15.00
68745;BMP180;66104;45.456;11.064;2023-05-17T04:39:20;99926.20;;;14.98
68745;BMP180;66104;45.456;11.064;2023-05-17T04:41:59;99927.20;;;14.90
68745;BMP180;66104;45.456;11.064;2023-05-17T04:44:41;99930.60;;;14.90
68745;BMP180;66104;45.456;11.064;2023-05-17T04:47:19;99935.80;;;14.90
68745;BMP180;66104;45.456;11.064;2023-05-17T04:49:58;99935.80;;;14.90
68745;BMP180;66104;45.456;11.064;2023-05-17T04:52:35;99944.20;;;14.90
68745;BMP180;66104;45.456;11.064;2023-05-17T04:55:15;99946.40;;;14.90
68745;BMP180;66104;45.456;11.064;2023-05-17T04:57:53;99944.20;;;14.90
68745;BMP180;66104;45.456;11.064;2023-05-17T05:00:32;99944.60;;;14.90
68745;BMP180;66104;45.456;11.064;2023-05-17T05:03:10;99946.80;;;14.90
68745;BMP180;66104;45.456;11.064;2023-05-17T05:05:48;99947.00;;;14.90
68745;BMP180;66104;45.456;11.064;2023-05-17T05:08:29;99952.60;;;14.90
68745;BMP180;66104;45.456;11.064;2023-05-17T05:11:07;99956.40;;;14.90
68745;BMP180;66104;45.456;11.064;2023-05-17T05:13:45;99959.40;;;14.90
68745;BMP180;66104;45.456;11.064;2023-05-17T05:16:23;99962.20;;;14.90
68745;BMP180;66104;45.456;11.064;2023-05-17T05:19:02;99964.40;;;14.90
68745;BMP180;66104;45.456;11.064;2023-05-17T05:21:43;99968.60;;;14.94
68745;BMP180;66104;45.456;11.064;2023-05-17T05:24:21;99969.20;;;14.92
68745;BMP180;66104;45.456;11.064;2023-05-17T05:26:59;99970.00;;;14.94
68745;BMP180;66104;45.456;11.064;2023-05-17T05:29:40;99976.60;;;14.92
68745;BMP180;66104;45.456;11.064;2023-05-17T05:32:20;99977.40;;;14.90
68745;BMP180;66104;45.456;11.064;2023-05-17T05:34:57;99977.80;;;14.90
68745;BMP180;66104;45.456;11.064;2023-05-17T05:37:36;99981.20;;;14.94
68745;BMP180;66104;45.456;11.064;2023-05-17T05:40:20;99986.60;;;15.00
68745;BMP180;66104;45.456;11.064;2023-05-17T05:42:58;99987.60;;;15.00
68745;BMP180;66104;45.456;11.064;2023-05-17T05:45:37;99987.20;;;15.00
68745;BMP180;66104;45.456;11.064;2023-05-17T05:48:19;99994.60;;;15.08
68745;BMP180;66104;45.456;11.064;2023-05-17T05:50:58;99990.60;;;15.10
68745;BMP180;66104;45.456;11.064;2023-05-17T05:53:36;99994.40;;;15.10
68745;BMP180;66104;45.456;11.064;2023-05-17T05:56:14;99996.40;;;15.10
68745;BMP180;66104;45.456;11.064;2023-05-17T05:58:53;99997.00;;;15.10
68745;BMP180;66104;45.456;11.064;2023-05-17T06:01:32;100001.00;;;15.20
68745;BMP180;66104;45.456;11.064;2023-05-17T06:04:11;100003.60;;;15.20
68745;BMP180;66104;45.456;11.064;2023-05-17T06:06:49;100007.00;;;15.20
68745;BMP180;66104;45.456;11.064;2023-05-17T06:09:27;100006.00;;;15.20
68745;BMP180;66104;45.456;11.064;2023-05-17T06:12:06;100006.80;;;15.26
68745;BMP180;66104;45.456;11.064;2023-05-17T06:14:44;100010.80;;;15.30
68745;BMP180;66104;45.456;11.064;2023-05-17T06:17:21;100010.60;;;15.30
68745;BMP180;66104;45.456;11.064;2023-05-17T06:20:00;100014.20;;;15.30
68745;BMP180;66104;45.456;11.064;2023-05-17T06:22:38;100013.00;;;15.30
68745;BMP180;66104;45.456;11.064;2023-05-17T06:25:16;100012.80;;;15.34
68745;BMP180;66104;45.456;11.064;2023-05-17T06:27:54;100017.60;;;15.40
68745;BMP180;66104;45.456;11.064;2023-05-17T06:30:33;100014.80;;;15.40
68745;BMP180;66104;45.456;11.064;2023-05-17T06:33:11;100019.80;;;15.40
68745;BMP180;66104;45.456;11.064;2023-05-17T06:35:50;100023.00;;;15.40
68745;BMP180;66104;45.456;11.064;2023-05-17T06:38:31;100024.60;;;15.44
68745;BMP180;66104;45.456;11.064;2023-05-17T06:41:11;100026.20;;;15.42
68745;BMP180;66104;45.456;11.064;2023-05-17T06:43:49;100025.80;;;15.48
68745;BMP180;66104;45.456;11.064;2023-05-17T06:46:27;100028.00;;;15.50
68745;BMP180;66104;45.456;11.064;2023-05-17T06:49:06;100025.80;;;15.50
68745;BMP180;66104;45.456;11.064;2023-05-17T06:51:45;100024.80;;;15.50
68745;BMP180;66104;45.456;11.064;2023-05-17T06:54:24;100031.80;;;15.60
68745;BMP180;66104;45.456;11.064;2023-05-17T06:57:07;100033.60;;;15.60
68745;BMP180;66104;45.456;11.064;2023-05-17T06:59:47;100036.20;;;15.70
68745;BMP180;66104;45.456;11.064;2023-05-17T07:02:25;100038.80;;;15.70
68745;BMP180;66104;45.456;11.064;2023-05-17T07:05:11;100040.60;;;15.70
68745;BMP180;66104;45.456;11.064;2023-05-17T07:07:50;100038.60;;;15.80
68745;BMP180;66104;45.456;11.064;2023-05-17T07:10:30;100043.00;;;15.80
68745;BMP180;66104;45.456;11.064;2023-05-17T07:13:14;100043.20;;;15.90
68745;BMP180;66104;45.456;11.064;2023-05-17T07:15:52;100043.80;;;15.90
68745;BMP180;66104;45.456;11.064;2023-05-17T07:18:32;100039.40;;;16.00
68745;BMP180;66104;45.456;11.064;2023-05-17T07:21:11;100040.60;;;16.10
68745;BMP180;66104;45.456;11.064;2023-05-17T07:23:54;100043.00;;;16.10
68745;BMP180;66104;45.456;11.064;2023-05-17T07:26:34;100043.00;;;16.20
68745;BMP180;66104;45.456;11.064;2023-05-17T07:29:14;100041.60;;;16.22
68745;BMP180;66104;45.456;11.064;2023-05-17T07:31:53;100044.60;;;16.30
68745;BMP180;66104;45.456;11.064;2023-05-17T07:34:32;100036.40;;;16.40
68745;BMP180;66104;45.456;11.064;2023-05-17T07:37:12;100036.40;;;16.40
68745;BMP180;66104;45.456;11.064;2023-05-17T07:39:52;100030.80;;;16.44
68745;BMP180;66104;45.456;11.064;2023-05-17T07:42:32;100027.40;;;16.50
68745;BMP180;66104;45.456;11.064;2023-05-17T07:45:15;100026.80;;;16.60
68745;BMP180;66104;45.456;11.064;2023-05-17T07:47:53;100028.40;;;16.70
68745;BMP180;66104;45.456;11.064;2023-05-17T07:50:32;100029.80;;;16.80
68745;BMP180;66104;45.456;11.064;2023-05-17T07:53:11;100034.60;;;16.90
68745;BMP180;66104;45.456;11.064;2023-05-17T07:55:50;100035.40;;;17.00
68745;BMP180;66104;45.456;11.064;2023-05-17T07:58:29;100039.40;;;17.10
68745;BMP180;66104;45.456;11.064;2023-05-17T08:01:08;100035.00;;;17.20
68745;BMP180;66104;45.456;11.064;2023-05-17T08:03:45;100037.40;;;17.30
68745;BMP180;66104;45.456;11.064;2023-05-17T08:06:24;100038.60;;;17.44
68745;BMP180;66104;45.456;11.064;2023-05-17T08:09:03;100046.40;;;17.60
68745;BMP180;66104;45.456;11.064;2023-05-17T08:11:42;100048.20;;;17.70
68745;BMP180;66104;45.456;11.064;2023-05-17T08:14:23;100048.00;;;17.80
68745;BMP180;66104;45.456;11.064;2023-05-17T08:17:00;100057.00;;;17.82
68745;BMP180;66104;45.456;11.064;2023-05-17T08:19:38;100058.40;;;17.90
68745;BMP180;66104;45.456;11.064;2023-05-17T08:22:16;100061.00;;;18.00
68745;BMP180;66104;45.456;11.064;2023-05-17T08:24:55;100073.80;;;18.00
68745;BMP180;66104;45.456;11.064;2023-05-17T08:27:32;100078.80;;;18.00
68745;BMP180;66104;45.456;11.064;2023-05-17T08:30:15;100085.20;;;18.00
68745;BMP180;66104;45.456;11.064;2023-05-17T08:33:05;100091.20;;;18.00
68745;BMP180;66104;45.456;11.064;2023-05-17T08:35:43;100098.60;;;18.10
68745;BMP180;66104;45.456;11.064;2023-05-17T08:38:21;100101.40;;;18.10
68745;BMP180;66104;45.456;11.064;2023-05-17T08:40:59;100106.00;;;18.10
68745;BMP180;66104;45.456;11.064;2023-05-17T08:43:39;100112.20;;;18.10
68745;BMP180;66104;45.456;11.064;2023-05-17T08:46:20;100119.60;;;18.18
68745;BMP180;66104;45.456;11.064;2023-05-17T08:49:02;100121.40;;;18.20
68745;BMP180;66104;45.456;11.064;2023-05-17T08:51:43;100121.20;;;18.26
68745;BMP180;66104;45.456;11.064;2023-05-17T08:54:23;100122.80;;;18.30
68745;BMP180;66104;45.456;11.064;2023-05-17T08:57:06;100130.00;;;18.40
68745;BMP180;66104;45.456;11.064;2023-05-17T08:59:45;100133.20;;;18.50
68745;BMP180;66104;45.456;11.064;2023-05-17T09:02:24;100134.20;;;18.54
68745;BMP180;66104;45.456;11.064;2023-05-17T09:05:03;100137.40;;;18.60
68745;BMP180;66104;45.456;11.064;2023-05-17T09:07:43;100142.60;;;18.62
68745;BMP180;66104;45.456;11.064;2023-05-17T09:10:20;100141.20;;;18.70
68745;BMP180;66104;45.456;11.064;2023-05-17T09:12:59;100141.40;;;18.70
68745;BMP180;66104;45.456;11.064;2023-05-17T09:15:37;100141.00;;;18.80
68745;BMP180;66104;45.456;11.064;2023-05-17T09:18:18;100143.20;;;18.80
68745;BMP180;66104;45.456;11.064;2023-05-17T09:21:00;100140.20;;;18.80
68745;BMP180;66104;45.456;11.064;2023-05-17T09:23:39;100142.60;;;18.84
68745;BMP180;66104;45.456;11.064;2023-05-17T09:26:41;100142.60;;;18.90
68745;BMP180;66104;45.456;11.064;2023-05-17T09:29:21;100137.40;;;18.90
68745;BMP180;66104;45.456;11.064;2023-05-17T09:32:14;100136.40;;;19.00
68745;BMP180;66104;45.456;11.064;2023-05-17T09:34:52;100138.40;;;19.10
68745;BMP180;66104;45.456;11.064;2023-05-17T09:37:31;100141.80;;;19.10
68745;BMP180;66104;45.456;11.064;2023-05-17T09:40:26;100142.40;;;19.20
68745;BMP180;66104;45.456;11.064;2023-05-17T09:43:08;100145.00;;;19.20
68745;BMP180;66104;45.456;11.064;2023-05-17T09:45:57;100149.40;;;19.30
68745;BMP180;66104;45.456;11.064;2023-05-17T09:48:39;100157.00;;;19.32
68745;BMP180;66104;45.456;11.064;2023-05-17T09:51:40;100164.40;;;19.40
68745;BMP180;66104;45.456;11.064;2023-05-17T09:54:20;100167.40;;;19.50
68745;BMP180;66104;45.456;11.064;2023-05-17T09:57:02;100169.00;;;19.60
68745;BMP180;66104;45.456;11.064;2023-05-17T09:59:44;100174.60;;;19.70
68745;BMP180;66104;45.456;11.064;2023-05-17T10:02:27;100174.00;;;19.70
68745;BMP180;66104;45.456;11.064;2023-05-17T10:05:12;100178.60;;;19.72
68745;BMP180;66104;45.456;11.064;2023-05-17T10:07:52;100175.40;;;19.80
68745;BMP180;66104;45.456;11.064;2023-05-17T10:10:31;100173.40;;;19.80
68745;BMP180;66104;45.456;11.064;2023-05-17T10:13:10;100173.60;;;19.88
68745;BMP180;66104;45.456;11.064;2023-05-17T10:15:49;100171.20;;;19.90
68745;BMP180;66104;45.456;11.064;2023-05-17T10:18:27;100165.80;;;19.92
68745;BMP180;66104;45.456;11.064;2023-05-17T10:21:04;100163.20;;;20.00
68745;BMP180;66104;45.456;11.064;2023-05-17T10:23:43;100168.20;;;20.08
68745;BMP180;66104;45.456;11.064;2023-05-17T10:26:20;100174.00;;;20.10
68745;BMP180;66104;45.456;11.064;2023-05-17T10:29:02;100172.80;;;20.12
68745;BMP180;66104;45.456;11.064;2023-05-17T10:31:43;100172.60;;;20.20
68745;BMP180;66104;45.456;11.064;2023-05-17T10:34:22;100175.00;;;20.20
68745;BMP180;66104;45.456;11.064;2023-05-17T10:37:04;100179.80;;;20.20
68745;BMP180;66104;45.456;11.064;2023-05-17T10:39:46;100177.60;;;20.22
68745;BMP180;66104;45.456;11.064;2023-05-17T10:42:27;100178.00;;;20.30
68745;BMP180;66104;45.456;11.064;2023-05-17T10:45:09;100171.20;;;20.30
68745;BMP180;66104;45.456;11.064;2023-05-17T10:47:51;100176.00;;;20.34
68745;BMP180;66104;45.456;11.064;2023-05-17T10:50:32;100175.40;;;20.40
68745;BMP180;66104;45.456;11.064;2023-05-17T10:53:12;100175.80;;;20.40
68745;BMP180;66104;45.456;11.064;2023-05-17T10:55:51;100177.40;;;20.40
68745;BMP180;66104;45.456;11.064;2023-05-17T10:58:30;100178.60;;;20.40
68745;BMP180;66104;45.456;11.064;2023-05-17T11:01:09;100187.40;;;20.42
68745;BMP180;66104;45.456;11.064;2023-05-17T11:03:49;100188.60;;;20.46
68745;BMP180;66104;45.456;11.064;2023-05-17T11:06:29;100198.20;;;20.50
68745;BMP180;66104;45.456;11.064;2023-05-17T11:09:17;100196.20;;;20.50
68745;BMP180;66104;45.456;11.064;2023-05-17T11:12:32;100202.00;;;20.42
68745;BMP180;66104;45.456;11.064;2023-05-17T11:15:16;100196.20;;;20.40
68745;BMP180;66104;45.456;11.064;2023-05-17T11:17:56;100198.80;;;20.40
68745;BMP180;66104;45.456;11.064;2023-05-17T11:20:40;100194.40;;;20.40
68745;BMP180;66104;45.456;11.064;2023-05-17T11:23:22;100196.80;;;20.40
68745;BMP180;66104;45.456;11.064;2023-05-17T11:26:19;100189.60;;;20.40
68745;BMP180;66104;45.456;11.064;2023-05-17T11:29:07;100192.00;;;20.40
68745;BMP180;66104;45.456;11.064;2023-05-17T11:31:52;100194.60;;;20.50
68745;BMP180;66104;45.456;11.064;2023-05-17T11:34:29;100197.60;;;20.56
68745;BMP180;66104;45.456;11.064;2023-05-17T11:39:13;100201.60;;;20.68
68745;BMP180;66104;45.456;11.064;2023-05-17T11:41:55;100197.20;;;20.70
68745;BMP180;66104;45.456;11.064;2023-05-17T11:44:35;100199.20;;;20.70
68745;BMP180;66104;45.456;11.064;2023-05-17T11:47:12;100201.60;;;20.70
68745;BMP180;66104;45.456;11.064;2023-05-17T11:49:49;100199.80;;;20.70
68745;BMP180;66104;45.456;11.064;2023-05-17T11:52:29;100207.20;;;20.70
68745;BMP180;66104;45.456;11.064;2023-05-17T11:55:09;100208.00;;;20.70
68745;BMP180;66104;45.456;11.064;2023-05-17T11:57:51;100210.40;;;20.78
68745;BMP180;66104;45.456;11.064;2023-05-17T12:00:30;100215.80;;;20.74
68745;BMP180;66104;45.456;11.064;2023-05-17T12:03:23;100219.00;;;20.70
68745;BMP180;66104;45.456;11.064;2023-05-17T12:06:09;100220.20;;;20.70
68745;BMP180;66104;45.456;11.064;2023-05-17T12:08:48;100231.00;;;20.62
68745;BMP180;66104;45.456;11.064;2023-05-17T12:11:26;100236.80;;;20.60
68745;BMP180;66104;45.456;11.064;2023-05-17T12:14:04;100235.20;;;20.60
68745;BMP180;66104;45.456;11.064;2023-05-17T12:16:46;100233.40;;;20.60
68745;BMP180;66104;45.456;11.064;2023-05-17T12:19:26;100239.20;;;20.60
68745;BMP180;66104;45.456;11.064;2023-05-17T12:22:11;100244.60;;;20.50
68745;BMP180;66104;45.456;11.064;2023-05-17T12:24:49;100248.40;;;20.42
68745;BMP180;66104;45.456;11.064;2023-05-17T12:27:33;100249.60;;;20.40
68745;BMP180;66104;45.456;11.064;2023-05-17T12:30:24;100254.00;;;20.38
68745;BMP180;66104;45.456;11.064;2023-05-17T12:33:02;100256.60;;;20.30
68745;BMP180;66104;45.456;11.064;2023-05-17T12:35:39;100259.80;;;20.36
68745;BMP180;66104;45.456;11.064;2023-05-17T12:38:17;100254.00;;;20.40
68745;BMP180;66104;45.456;11.064;2023-05-17T12:40:55;100258.20;;;20.40
68745;BMP180;66104;45.456;11.064;2023-05-17T12:43:34;100259.20;;;20.40
68745;BMP180;66104;45.456;11.064;2023-05-17T12:46:18;100263.60;;;20.50
68745;BMP180;66104;45.456;11.064;2023-05-17T12:48:59;100262.80;;;20.60
68745;BMP180;66104;45.456;11.064;2023-05-17T12:51:44;100273.80;;;20.60
68745;BMP180;66104;45.456;11.064;2023-05-17T12:54:31;100282.40;;;20.66
68745;BMP180;66104;45.456;11.064;2023-05-17T12:57:19;100285.60;;;20.70
68745;BMP180;66104;45.456;11.064;2023-05-17T12:59:58;100279.20;;;20.80
68745;BMP180;66104;45.456;11.064;2023-05-17T13:02:36;100275.80;;;20.70
68745;BMP180;66104;45.456;11.064;2023-05-17T13:05:20;100281.60;;;20.70
68745;BMP180;66104;45.456;11.064;2023-05-17T13:07:59;100275.60;;;20.70
68745;BMP180;66104;45.456;11.064;2023-05-17T13:11:03;100285.00;;;20.70
68745;BMP180;66104;45.456;11.064;2023-05-17T13:13:42;100282.20;;;20.70
68745;BMP180;66104;45.456;11.064;2023-05-17T13:16:19;100284.80;;;20.70
68745;BMP180;66104;45.456;11.064;2023-05-17T13:19:10;100285.20;;;20.70
68745;BMP180;66104;45.456;11.064;2023-05-17T13:21:47;100282.00;;;20.60
68745;BMP180;66104;45.456;11.064;2023-05-17T13:24:26;100281.80;;;20.60
68745;BMP180;66104;45.456;11.064;2023-05-17T13:27:04;100277.00;;;20.60
68745;BMP180;66104;45.456;11.064;2023-05-17T13:29:42;100277.80;;;20.70
68745;BMP180;66104;45.456;11.064;2023-05-17T13:32:22;100279.60;;;20.70
68745;BMP180;66104;45.456;11.064;2023-05-17T13:35:00;100281.00;;;20.70
68745;BMP180;66104;45.456;11.064;2023-05-17T13:37:35;100282.20;;;20.70
68745;BMP180;66104;45.456;11.064;2023-05-17T13:40:18;100281.80;;;20.70
68745;BMP180;66104;45.456;11.064;2023-05-17T13:42:56;100282.60;;;20.70
68745;BMP180;66104;45.456;11.064;2023-05-17T13:45:33;100282.60;;;20.60
68745;BMP180;66104;45.456;11.064;2023-05-17T13:48:11;100283.20;;;20.60
68745;BMP180;66104;45.456;11.064;2023-05-17T13:50:50;100284.80;;;20.60
68745;BMP180;66104;45.456;11.064;2023-05-17T13:53:28;100286.00;;;20.80
68745;BMP180;66104;45.456;11.064;2023-05-17T13:56:06;100285.40;;;21.00
68745;BMP180;66104;45.456;11.064;2023-05-17T13:58:44;100282.00;;;21.20
68745;BMP180;66104;45.456;11.064;2023-05-17T14:01:22;100291.60;;;21.40
68745;BMP180;66104;45.456;11.064;2023-05-17T14:03:58;100282.60;;;21.40
68745;BMP180;66104;45.456;11.064;2023-05-17T14:06:43;100284.80;;;21.36
68745;BMP180;66104;45.456;11.064;2023-05-17T14:09:24;100275.60;;;21.40
68745;BMP180;66104;45.456;11.064;2023-05-17T14:12:05;100283.60;;;21.30
68745;BMP180;66104;45.456;11.064;2023-05-17T14:14:44;100285.60;;;21.20
68745;BMP180;66104;45.456;11.064;2023-05-17T14:17:23;100287.00;;;21.00
68745;BMP180;66104;45.456;11.064;2023-05-17T14:20:02;100284.00;;;20.90
68745;BMP180;66104;45.456;11.064;2023-05-17T14:22:41;100285.80;;;20.86
68745;BMP180;66104;45.456;11.064;2023-05-17T14:25:19;100287.00;;;20.80
68745;BMP180;66104;45.456;11.064;2023-05-17T14:27:58;100289.20;;;20.70
68745;BMP180;66104;45.456;11.064;2023-05-17T14:30:38;100286.60;;;20.70
68745;BMP180;66104;45.456;11.064;2023-05-17T14:33:17;100287.00;;;20.60
68745;BMP180;66104;45.456;11.064;2023-05-17T14:35:55;100293.00;;;20.64
68745;BMP180;66104;45.456;11.064;2023-05-17T14:38:33;100288.40;;;20.70
68745;BMP180;66104;45.456;11.064;2023-05-17T14:41:12;100294.40;;;20.60
68745;BMP180;66104;45.456;11.064;2023-05-17T14:43:51;100303.80;;;20.64
68745;BMP180;66104;45.456;11.064;2023-05-17T14:46:30;100301.00;;;20.60
68745;BMP180;66104;45.456;11.064;2023-05-17T14:49:12;100301.00;;;20.50
68745;BMP180;66104;45.456;11.064;2023-05-17T14:51:52;100306.00;;;20.50
68745;BMP180;66104;45.456;11.064;2023-05-17T14:54:31;100305.60;;;20.50
68745;BMP180;66104;45.456;11.064;2023-05-17T14:57:10;100305.80;;;20.48
68745;BMP180;66104;45.456;11.064;2023-05-17T14:59:50;100312.20;;;20.50
68745;BMP180;66104;45.456;11.064;2023-05-17T15:02:29;100313.00;;;20.50
68745;BMP180;66104;45.456;11.064;2023-05-17T15:05:11;100317.40;;;20.44